Preview of NWS' New Version of Forecast
This preview is not operational and should not be used for support decisions.

Terminal Aerodrome Forecast (TAF)

Issued by National Weather Service (NWS)

                            
000
FTUS41 KGYX 200902 AAB
TAFRKD
TAF AMD
KRKD 200902Z 2009/2106 28004KT P6SM FEW080
      TEMPO 2009/2012 2SM BR
     FM201600 19006KT P6SM SKC
     FM210000 VRB03KT P6SM SKC=